Time;durP1;ratioP1;P1;durP2;ratioP2;P2;SDS_P1;SDS_P2;PMS_P1;PMS_P2;Temp;Humidity;BMP_temperature;BMP_pressure;BME280_temperature;BME280_humidity;BME280_pressure;Samples;Min_cycle;Max_cycle;Signal;HPM_P1;HPM_P2
2022/12/03 00:00:30;;;;;;;24.60;14.20;;;5.90;99.90;;;;;;5004970;28;20038;-82
2022/12/03 00:02:56;;;;;;;24.15;13.20;;;5.90;99.90;;;;;;5009439;28;20115;-82
2022/12/03 00:05:23;;;;;;;25.40;13.70;;;5.90;99.90;;;;;;5007626;28;20120;-82
2022/12/03 00:07:50;;;;;;;25.30;13.60;;;5.90;99.90;;;;;;5009333;28;20048;-82
2022/12/03 00:10:17;;;;;;;24.48;14.00;;;5.90;99.90;;;;;;5008468;28;20049;-82
2022/12/03 00:12:44;;;;;;;25.35;13.40;;;5.90;99.90;;;;;;5009372;28;20042;-82
2022/12/03 00:15:12;;;;;;;22.60;12.75;;;6.00;99.90;;;;;;5008508;28;20038;-82
2022/12/03 00:17:40;;;;;;;24.40;13.90;;;6.00;99.90;;;;;;5009104;28;20041;-82
2022/12/03 00:20:08;;;;;;;25.77;14.15;;;6.00;99.90;;;;;;4991564;28;20049;-82
2022/12/03 00:22:35;;;;;;;24.42;13.07;;;5.90;99.90;;;;;;5001987;28;20054;-82
2022/12/03 00:25:02;;;;;;;24.15;14.13;;;5.90;99.90;;;;;;5007565;28;20041;-82
2022/12/03 00:27:29;;;;;;;24.15;14.48;;;5.90;99.90;;;;;;5008149;28;20050;-82
2022/12/03 00:29:56;;;;;;;22.67;13.45;;;6.10;99.90;;;;;;4991187;28;20053;-82
2022/12/03 00:32:23;;;;;;;22.23;13.05;;;6.00;99.90;;;;;;4991478;28;20072;-83
2022/12/03 00:34:51;;;;;;;25.02;14.75;;;6.00;99.90;;;;;;5005588;28;20073;-82
2022/12/03 00:37:18;;;;;;;23.90;13.95;;;6.00;99.90;;;;;;5001238;28;20042;-82
2022/12/03 00:39:48;;;;;;;26.65;14.35;;;5.90;99.90;;;;;;5009151;28;20069;-82
2022/12/03 00:42:15;;;;;;;25.88;14.35;;;5.90;99.90;;;;;;5008940;28;20046;-82
2022/12/03 00:44:42;;;;;;;25.67;14.80;;;5.80;99.90;;;;;;5007624;28;20041;-82
2022/12/03 00:47:09;;;;;;;25.70;14.48;;;5.90;99.90;;;;;;4989353;28;20493;-82
2022/12/03 00:49:36;;;;;;;24.88;14.70;;;5.80;99.90;;;;;;5008337;28;20042;-82
2022/12/03 00:52:07;;;;;;;22.10;13.07;;;5.80;99.90;;;;;;5008774;28;20418;-82
2022/12/03 00:54:34;;;;;;;24.25;13.82;;;5.80;99.90;;;;;;5008425;28;20058;-82
2022/12/03 00:57:01;;;;;;;23.80;14.30;;;5.90;99.90;;;;;;5008780;28;20498;-82
2022/12/03 00:59:27;;;;;;;22.80;13.85;;;6.00;99.90;;;;;;5008541;28;20129;-82
2022/12/03 01:01:54;;;;;;;22.73;13.45;;;5.80;99.90;;;;;;5008187;28;20053;-82
2022/12/03 01:04:21;;;;;;;24.38;13.85;;;5.90;99.90;;;;;;5008069;28;20054;-82
2022/12/03 01:06:48;;;;;;;26.92;14.20;;;5.80;99.90;;;;;;5008806;28;20034;-82
2022/12/03 01:09:16;;;;;;;23.98;13.52;;;5.80;99.90;;;;;;4991138;28;20065;-82
2022/12/03 01:11:43;;;;;;;24.05;13.68;;;5.80;99.90;;;;;;5008007;28;20045;-82
2022/12/03 01:14:12;;;;;;;25.85;14.50;;;5.80;99.90;;;;;;5008742;28;20045;-82
2022/12/03 01:16:39;;;;;;;22.02;12.68;;;5.80;99.90;;;;;;5007790;28;20441;-82
2022/12/03 01:19:06;;;;;;;25.27;14.23;;;5.90;99.90;;;;;;4989388;28;20046;-82
2022/12/03 01:21:33;;;;;;;25.23;13.75;;;5.90;99.90;;;;;;4996789;28;20052;-82
2022/12/03 01:24:01;;;;;;;24.15;13.52;;;5.80;99.90;;;;;;5007893;28;20037;-82
2022/12/03 01:26:29;;;;;;;26.20;14.43;;;5.90;99.90;;;;;;4999026;28;20042;-82
2022/12/03 01:28:56;;;;;;;28.10;14.30;;;5.90;99.90;;;;;;5006673;28;21294;-82
2022/12/03 01:34:07;;;;;;;24.70;13.77;;;5.80;99.90;;;;;;5010936;28;20615;-82
2022/12/03 01:36:34;;;;;;;26.00;14.52;;;5.90;99.90;;;;;;5011607;28;20042;-82
2022/12/03 01:39:01;;;;;;;22.42;13.30;;;5.80;99.90;;;;;;5011099;28;20049;-82
2022/12/03 01:41:30;;;;;;;22.25;13.32;;;5.90;99.90;;;;;;5012173;28;20045;-82
2022/12/03 01:43:57;;;;;;;26.90;14.65;;;5.90;99.90;;;;;;4995177;28;20060;-82
2022/12/03 01:46:27;;;;;;;24.42;14.55;;;5.90;99.90;;;;;;5012271;28;20056;-82
2022/12/03 01:48:56;;;;;;;24.25;13.93;;;6.00;99.90;;;;;;5010971;28;20053;-82
2022/12/03 01:51:23;;;;;;;24.95;13.77;;;5.90;99.90;;;;;;5002988;28;20420;-82
2022/12/03 01:53:51;;;;;;;26.02;14.25;;;5.90;99.90;;;;;;5010837;28;20034;-82
2022/12/03 01:56:19;;;;;;;26.65;13.68;;;5.90;99.90;;;;;;5011919;28;20049;-82
2022/12/03 01:58:47;;;;;;;25.88;14.25;;;5.90;99.90;;;;;;5011550;28;20084;-82
2022/12/03 02:01:18;;;;;;;22.73;13.10;;;5.90;99.90;;;;;;5010296;28;20042;-82
2022/12/03 02:03:45;;;;;;;25.48;14.50;;;6.00;99.90;;;;;;5010652;28;20117;-82
2022/12/03 02:06:16;;;;;;;27.02;14.25;;;6.00;99.90;;;;;;5011226;28;20402;-82
2022/12/03 02:08:44;;;;;;;23.20;13.45;;;6.00;99.90;;;;;;5026590;23;20386;-79
2022/12/03 02:11:17;;;;;;;25.75;14.77;;;6.00;99.90;;;;;;5009649;28;20045;-78
2022/12/03 02:13:46;;;;;;;27.83;15.57;;;6.00;99.90;;;;;;5011167;28;20046;-79
2022/12/03 02:16:13;;;;;;;25.38;14.48;;;5.90;99.90;;;;;;5010574;28;20144;-79
2022/12/03 02:18:40;;;;;;;26.27;14.70;;;6.00;99.90;;;;;;5010134;28;20044;-79
2022/12/03 02:21:23;;;;;;;24.98;14.15;;;6.00;99.90;;;;;;5008550;28;20100;-79
2022/12/03 02:23:57;;;;;;;27.73;15.20;;;6.00;99.90;;;;;;5010206;28;20052;-79
2022/12/03 02:26:25;;;;;;;26.95;14.13;;;6.00;99.90;;;;;;5010273;28;20037;-79
2022/12/03 02:28:52;;;;;;;27.13;15.57;;;5.90;99.90;;;;;;5010624;28;20046;-79
2022/12/03 02:31:19;;;;;;;27.85;15.65;;;5.90;99.90;;;;;;5008810;28;20050;-79
2022/12/03 02:33:46;;;;;;;30.55;15.98;;;6.00;99.90;;;;;;5008675;28;20506;-79
2022/12/03 02:36:13;;;;;;;28.67;15.05;;;5.90;99.90;;;;;;5009976;28;20042;-79
2022/12/03 02:38:41;;;;;;;29.23;15.98;;;5.90;99.90;;;;;;5009929;28;20111;-78
2022/12/03 02:42:33;;;;;;;27.48;15.40;;;6.00;99.90;;;;;;5008756;28;20037;-79
2022/12/03 02:44:00;;;;;;;29.50;15.37;;;6.00;99.90;;;;;;5006915;28;20108;-79
2022/12/03 02:46:27;;;;;;;30.38;15.40;;;6.00;99.90;;;;;;5010308;28;20503;-79
2022/12/03 02:48:53;;;;;;;30.30;16.75;;;5.90;99.90;;;;;;5009463;28;20046;-79
2022/12/03 02:51:20;;;;;;;31.45;16.02;;;5.90;99.90;;;;;;5008345;28;20048;-79
2022/12/03 02:53:49;;;;;;;31.77;16.52;;;5.90;99.90;;;;;;5007930;28;20045;-79
2022/12/03 02:56:18;;;;;;;30.88;16.45;;;5.90;99.90;;;;;;4992149;28;20101;-79
2022/12/03 02:58:47;;;;;;;29.52;15.70;;;5.90;99.90;;;;;;5009200;28;20045;-79
2022/12/03 03:01:15;;;;;;;31.15;16.00;;;6.00;99.90;;;;;;5007762;28;20046;-79
2022/12/03 03:03:43;;;;;;;31.58;16.00;;;5.80;99.90;;;;;;5008736;28;20104;-79
2022/12/03 03:06:10;;;;;;;34.53;16.55;;;5.70;99.90;;;;;;5009061;28;20050;-79
2022/12/03 03:08:38;;;;;;;27.70;15.60;;;5.70;99.90;;;;;;5009278;28;20422;-78
2022/12/03 03:11:05;;;;;;;33.90;16.65;;;5.70;99.90;;;;;;5008634;28;20048;-79
2022/12/03 03:13:34;;;;;;;31.20;16.08;;;5.80;99.90;;;;;;5009041;28;20046;-79
2022/12/03 03:16:02;;;;;;;29.75;15.25;;;5.80;99.90;;;;;;5009164;28;20445;-79
2022/12/03 03:18:31;;;;;;;29.75;16.20;;;5.80;99.90;;;;;;5009349;28;20046;-79
2022/12/03 03:20:58;;;;;;;28.40;15.10;;;5.90;99.90;;;;;;5008914;28;20050;-79
2022/12/03 03:23:25;;;;;;;32.30;16.27;;;5.80;99.90;;;;;;5009698;28;20050;-79
2022/12/03 03:25:55;;;;;;;32.17;15.48;;;5.70;99.90;;;;;;5010241;28;20065;-79
2022/12/03 03:28:23;;;;;;;30.48;15.65;;;5.70;99.90;;;;;;5008137;28;20048;-79
2022/12/03 03:30:51;;;;;;;33.05;16.92;;;5.70;99.90;;;;;;5009534;28;20103;-79
2022/12/03 03:33:18;;;;;;;33.67;15.55;;;5.70;99.90;;;;;;5008541;28;20038;-78
2022/12/03 03:35:47;;;;;;;31.48;16.65;;;5.70;99.90;;;;;;5008942;28;20506;-79
2022/12/03 03:38:14;;;;;;;34.17;15.63;;;5.80;99.90;;;;;;5008234;28;20041;-79
2022/12/03 03:40:41;;;;;;;37.20;17.55;;;5.70;99.90;;;;;;5007893;28;20056;-79
2022/12/03 03:43:08;;;;;;;33.80;16.55;;;5.70;99.90;;;;;;5008437;28;20781;-78
2022/12/03 03:45:35;;;;;;;34.00;16.63;;;5.70;99.90;;;;;;5008509;28;20037;-79
2022/12/03 03:48:02;;;;;;;35.13;16.50;;;5.70;99.90;;;;;;5007658;28;20042;-78
2022/12/03 03:50:30;;;;;;;36.85;16.23;;;5.90;99.90;;;;;;5009028;28;20042;-78
2022/12/03 03:52:59;;;;;;;33.88;15.57;;;5.80;99.90;;;;;;5008065;28;20100;-78
2022/12/03 03:55:26;;;;;;;34.95;17.17;;;5.80;99.90;;;;;;5007170;28;20042;-79
2022/12/03 03:57:53;;;;;;;34.63;16.77;;;5.80;99.90;;;;;;5007673;28;20074;-78
2022/12/03 04:00:20;;;;;;;35.25;15.95;;;5.80;99.90;;;;;;4997665;28;20517;-78
2022/12/03 04:02:47;;;;;;;33.30;16.55;;;5.80;99.90;;;;;;5007491;28;20409;-79
2022/12/03 04:05:17;;;;;;;38.45;16.67;;;5.80;99.90;;;;;;5008099;28;20060;-79
2022/12/03 04:07:44;;;;;;;35.63;15.82;;;5.90;99.90;;;;;;5007286;28;20054;-78
2022/12/03 04:12:57;;;;;;;40.55;16.52;;;5.90;99.90;;;;;;5008284;28;20057;-79
2022/12/03 04:15:25;;;;;;;34.80;16.10;;;5.90;99.90;;;;;;5007972;28;20418;-79
2022/12/03 04:20:33;;;;;;;39.00;16.85;;;5.90;99.90;;;;;;5007029;28;20049;-79
2022/12/03 04:22:58;;;;;;;35.97;16.58;;;6.10;99.90;;;;;;5007921;28;20050;-79
2022/12/03 04:30:56;;;;;;;35.80;15.68;;;5.90;99.90;;;;;;5007291;28;20050;-78
2022/12/03 04:36:08;;;;;;;36.90;16.35;;;5.90;99.90;;;;;;5007985;28;20046;-79
2022/12/03 04:38:35;;;;;;;40.20;17.92;;;5.90;99.90;;;;;;5006851;28;20046;-79
2022/12/03 04:41:06;;;;;;;41.70;16.85;;;6.00;99.90;;;;;;5007094;28;20053;-78
2022/12/03 04:44:32;;;;;;;37.80;16.27;;;6.10;99.90;;;;;;5008433;28;20049;-79
2022/12/03 04:46:21;;;;;;;39.08;16.02;;;6.00;99.90;;;;;;5007856;28;20048;-79
2022/12/03 04:48:48;;;;;;;37.80;16.58;;;6.00;99.90;;;;;;5007197;28;20084;-79
2022/12/03 04:51:15;;;;;;;41.90;17.38;;;6.00;99.90;;;;;;5007303;28;20048;-79
2022/12/03 04:53:42;;;;;;;35.53;15.73;;;6.00;99.90;;;;;;5006704;28;20056;-79
2022/12/03 04:56:10;;;;;;;37.33;17.33;;;5.90;99.90;;;;;;5007475;28;20050;-79
2022/12/03 04:58:37;;;;;;;34.85;16.33;;;6.00;99.90;;;;;;5006052;28;20038;-79
2022/12/03 05:01:04;;;;;;;35.85;15.45;;;5.90;99.90;;;;;;5008338;28;20052;-79
2022/12/03 05:03:31;;;;;;;39.15;16.17;;;6.00;99.90;;;;;;4989025;28;20482;-78
2022/12/03 05:05:58;;;;;;;38.38;16.55;;;6.00;99.90;;;;;;4989320;28;20045;-79
2022/12/03 05:08:25;;;;;;;39.20;17.10;;;5.90;99.90;;;;;;5010759;28;20092;-78
2022/12/03 05:10:52;;;;;;;42.90;17.60;;;5.90;99.90;;;;;;5011339;28;20042;-79
2022/12/03 05:13:21;;;;;;;38.78;17.00;;;5.90;99.90;;;;;;5010909;28;20501;-78
2022/12/03 05:15:47;;;;;;;38.40;16.25;;;5.80;99.90;;;;;;5009744;28;20038;-79
2022/12/03 05:18:14;;;;;;;36.70;16.67;;;5.70;99.90;;;;;;5009651;28;20044;-79
2022/12/03 05:20:40;;;;;;;37.22;16.00;;;5.80;99.90;;;;;;5010319;28;20049;-79
2022/12/03 05:23:07;;;;;;;40.17;17.58;;;5.80;99.90;;;;;;5010256;28;20052;-78
2022/12/03 05:25:34;;;;;;;43.03;16.98;;;5.70;99.90;;;;;;5011782;28;20092;-79
2022/12/03 05:28:01;;;;;;;39.05;17.15;;;5.80;99.90;;;;;;5009619;28;20041;-79
2022/12/03 05:30:29;;;;;;;40.83;17.02;;;5.70;99.90;;;;;;5010790;28;20063;-78
2022/12/03 05:32:56;;;;;;;37.50;17.48;;;5.70;99.90;;;;;;5007028;28;20065;-79
2022/12/03 05:35:23;;;;;;;37.15;16.27;;;5.70;99.90;;;;;;5010817;28;20049;-79
2022/12/03 05:37:52;;;;;;;45.55;17.60;;;5.80;99.90;;;;;;5010468;28;20048;-79
2022/12/03 05:40:19;;;;;;;39.63;16.83;;;5.70;99.90;;;;;;4989745;28;20046;-79
2022/12/03 05:42:55;;;;;;;38.10;17.13;;;5.60;99.90;;;;;;5011066;28;20046;-78
2022/12/03 05:45:22;;;;;;;36.58;15.75;;;5.70;99.90;;;;;;5011042;28;20052;-79
2022/12/03 05:47:51;;;;;;;41.03;16.58;;;5.80;99.90;;;;;;4993514;28;20514;-78
2022/12/03 05:50:18;;;;;;;45.17;17.92;;;5.70;99.90;;;;;;5007561;28;20046;-79
2022/12/03 05:52:45;;;;;;;41.38;16.85;;;5.80;99.90;;;;;;4989831;28;20525;-79
2022/12/03 05:55:12;;;;;;;38.88;17.70;;;5.80;99.90;;;;;;5010596;28;20572;-79
2022/12/03 05:57:40;;;;;;;41.05;16.67;;;5.80;99.90;;;;;;5009474;28;20120;-79
2022/12/03 06:00:11;;;;;;;39.67;17.02;;;5.60;99.90;;;;;;5005404;28;20049;-78
2022/12/03 06:02:39;;;;;;;40.67;17.90;;;5.60;99.90;;;;;;5010399;28;20069;-78
2022/12/03 06:05:08;;;;;;;45.90;17.67;;;5.60;99.90;;;;;;5010704;28;20401;-79
2022/12/03 06:07:35;;;;;;;41.10;17.25;;;5.60;99.90;;;;;;5010356;28;20049;-78
2022/12/03 06:10:02;;;;;;;40.92;18.08;;;5.60;99.90;;;;;;5001848;28;20042;-79
2022/12/03 06:12:29;;;;;;;43.50;17.67;;;5.70;99.90;;;;;;5009950;28;20056;-78
2022/12/03 06:14:56;;;;;;;38.65;18.10;;;5.70;99.90;;;;;;5009177;28;20048;-78
2022/12/03 06:17:23;;;;;;;43.47;18.10;;;5.70;99.90;;;;;;5010227;28;20577;-79
2022/12/03 06:19:49;;;;;;;43.65;17.90;;;5.70;99.90;;;;;;4998930;28;20050;-79
2022/12/03 06:22:20;;;;;;;44.88;18.45;;;5.70;99.90;;;;;;5006156;28;20096;-82
2022/12/03 06:24:47;;;;;;;40.17;16.85;;;5.80;99.90;;;;;;5010550;28;20057;-83
2022/12/03 06:27:14;;;;;;;39.17;17.92;;;5.70;99.90;;;;;;5010514;28;20050;-79
2022/12/03 06:29:41;;;;;;;42.83;17.67;;;5.70;99.90;;;;;;5009528;28;20052;-85
2022/12/03 06:32:08;;;;;;;39.28;16.52;;;5.80;99.90;;;;;;5011071;28;20045;-86
2022/12/03 06:34:35;;;;;;;38.83;16.98;;;5.80;99.90;;;;;;5010086;28;20048;-85
2022/12/03 06:37:01;;;;;;;41.25;17.23;;;5.80;99.90;;;;;;5011009;28;20592;-84
2022/12/03 06:39:30;;;;;;;40.00;17.92;;;5.70;99.90;;;;;;5008573;28;20049;-84
2022/12/03 06:41:57;;;;;;;39.03;17.98;;;5.70;99.90;;;;;;5010570;28;20498;-83
2022/12/03 06:44:23;;;;;;;46.75;19.52;;;5.70;99.90;;;;;;5009803;28;20814;-84
2022/12/03 06:46:50;;;;;;;40.75;17.55;;;5.80;99.90;;;;;;5009833;28;20046;-86
2022/12/03 06:49:17;;;;;;;46.50;18.63;;;5.80;99.90;;;;;;5007818;28;20034;-86
2022/12/03 06:51:45;;;;;;;42.97;18.17;;;5.80;99.90;;;;;;5009933;28;20049;-83
2022/12/03 06:54:12;;;;;;;45.47;18.58;;;5.80;99.90;;;;;;5006416;28;20057;-85
2022/12/03 06:56:40;;;;;;;40.85;18.33;;;5.70;99.90;;;;;;5006918;28;20668;-85
2022/12/03 06:59:07;;;;;;;41.15;17.25;;;5.70;99.90;;;;;;5007436;28;20042;-85
2022/12/03 07:01:34;;;;;;;42.65;17.80;;;5.70;99.90;;;;;;5001951;28;20061;-84
2022/12/03 07:04:00;;;;;;;40.15;18.00;;;5.70;99.90;;;;;;4992506;28;20056;-84
2022/12/03 07:06:27;;;;;;;46.08;18.05;;;5.70;99.90;;;;;;4981403;28;20038;-83
2022/12/03 07:08:54;;;;;;;40.00;17.70;;;5.80;99.90;;;;;;5008617;28;20038;-82
2022/12/03 07:11:38;;;;;;;40.80;17.85;;;5.80;99.90;;;;;;5009727;28;20095;-83
2022/12/03 07:14:08;;;;;;;38.40;16.98;;;5.80;99.90;;;;;;4992850;28;20073;-82
2022/12/03 07:16:35;;;;;;;40.97;17.25;;;5.80;99.90;;;;;;5001569;28;20045;-83
2022/12/03 07:19:02;;;;;;;40.60;17.35;;;5.70;99.90;;;;;;5009369;28;20186;-83
2022/12/03 07:21:29;;;;;;;40.20;17.05;;;5.70;99.90;;;;;;5010095;28;20045;-82
2022/12/03 07:23:56;;;;;;;40.47;17.20;;;5.70;99.90;;;;;;5009970;28;20049;-83
2022/12/03 07:26:23;;;;;;;38.85;17.48;;;5.70;99.90;;;;;;5008291;28;20045;-83
2022/12/03 07:28:49;;;;;;;40.58;16.58;;;5.70;99.90;;;;;;5006483;28;20407;-83
2022/12/03 07:31:18;;;;;;;35.75;16.85;;;5.70;99.90;;;;;;5008748;28;20506;-83
2022/12/03 07:33:45;;;;;;;43.10;17.88;;;5.80;99.90;;;;;;5009664;28;20060;-82
2022/12/03 07:36:12;;;;;;;36.65;16.88;;;5.70;99.90;;;;;;5007873;28;20038;-83
2022/12/03 07:38:38;;;;;;;35.15;16.10;;;5.70;99.90;;;;;;5007443;28;20080;-82
2022/12/03 07:41:05;;;;;;;34.33;15.90;;;5.70;99.90;;;;;;5004431;28;20042;-83
2022/12/03 07:43:33;;;;;;;35.30;16.15;;;5.60;99.90;;;;;;5006949;28;20042;-82
2022/12/03 07:46:00;;;;;;;39.88;16.65;;;5.90;99.90;;;;;;4990613;28;20068;-83
2022/12/03 07:48:28;;;;;;;41.45;17.00;;;5.70;99.90;;;;;;4990346;28;20057;-83
2022/12/03 07:50:55;;;;;;;38.10;16.55;;;5.70;99.90;;;;;;5008585;28;20041;-83
2022/12/03 07:53:22;;;;;;;35.28;15.95;;;5.70;99.90;;;;;;5008287;28;20048;-83
2022/12/03 07:55:49;;;;;;;39.90;17.20;;;5.70;99.90;;;;;;5008681;28;20049;-81
2022/12/03 07:58:16;;;;;;;38.45;17.15;;;5.70;99.90;;;;;;5008844;28;20048;-81
2022/12/03 08:00:43;;;;;;;37.80;16.60;;;5.70;99.90;;;;;;5007654;28;20414;-81
2022/12/03 08:03:09;;;;;;;35.67;16.90;;;5.70;99.90;;;;;;5000950;28;20510;-79
2022/12/03 08:05:38;;;;;;;43.60;17.92;;;5.70;99.90;;;;;;5001206;28;20053;-83
2022/12/03 08:08:05;;;;;;;39.80;18.30;;;5.70;99.90;;;;;;5018379;23;20038;-80
2022/12/03 08:10:32;;;;;;;39.60;17.02;;;5.70;99.90;;;;;;5006104;28;20137;-78
2022/12/03 08:12:59;;;;;;;42.15;18.15;;;5.70;99.90;;;;;;4987537;28;20054;-78
2022/12/03 08:15:28;;;;;;;36.83;17.05;;;5.70;99.90;;;;;;5007834;28;20045;-78
2022/12/03 08:17:58;;;;;;;36.42;17.00;;;5.70;99.90;;;;;;5008273;28;20050;-79
2022/12/03 08:20:28;;;;;;;37.75;16.50;;;5.70;99.90;;;;;;5008280;28;20373;-78
2022/12/03 08:22:56;;;;;;;37.90;17.27;;;5.70;99.90;;;;;;4985613;28;20614;-78
2022/12/03 08:25:25;;;;;;;38.28;17.60;;;5.70;99.90;;;;;;4988902;28;20134;-78
2022/12/03 08:27:55;;;;;;;40.33;17.75;;;5.70;99.90;;;;;;4989805;28;20041;-78
2022/12/03 08:30:22;;;;;;;44.15;18.63;;;5.60;99.90;;;;;;4990426;28;20113;-80
2022/12/03 08:32:49;;;;;;;41.25;18.45;;;5.70;99.90;;;;;;4989841;28;20562;-78
2022/12/03 08:35:22;;;;;;;41.30;17.60;;;5.80;99.90;;;;;;4977655;28;20501;-78
2022/12/03 08:37:54;;;;;;;41.83;18.23;;;5.70;99.90;;;;;;4987553;28;20038;-78
2022/12/03 08:40:28;;;;;;;37.78;17.38;;;5.70;99.90;;;;;;4994386;28;20142;-78
2022/12/03 08:42:55;;;;;;;36.58;17.02;;;5.70;99.90;;;;;;4991161;28;20078;-78
2022/12/03 08:45:39;;;;;;;36.38;16.73;;;5.70;99.90;;;;;;4999620;28;20048;-78
2022/12/03 08:48:20;;;;;;;37.70;17.27;;;5.80;99.90;;;;;;4990040;28;20054;-78
2022/12/03 08:50:47;;;;;;;36.35;17.08;;;5.80;99.90;;;;;;4993541;28;20417;-79
2022/12/03 08:53:24;;;;;;;35.38;16.08;;;5.80;99.90;;;;;;5001338;28;20072;-79
2022/12/03 08:55:54;;;;;;;38.53;17.40;;;5.80;99.90;;;;;;4991902;28;20042;-78
2022/12/03 08:58:22;;;;;;;38.80;17.13;;;5.80;99.90;;;;;;4990013;28;20508;-79
2022/12/03 09:00:57;;;;;;;34.90;16.30;;;5.70;99.90;;;;;;4992202;28;20042;-79
2022/12/03 09:03:24;;;;;;;39.60;17.52;;;5.80;99.90;;;;;;4991592;28;20068;-80
2022/12/03 09:05:51;;;;;;;34.95;16.83;;;5.80;99.90;;;;;;4992181;28;20053;-81
2022/12/03 09:08:18;;;;;;;40.53;17.70;;;5.80;99.90;;;;;;4992693;28;20494;-79
2022/12/03 09:10:45;;;;;;;36.65;17.73;;;5.70;99.90;;;;;;4991495;28;20042;-80
2022/12/03 09:13:13;;;;;;;40.75;17.60;;;5.70;99.90;;;;;;4991916;28;20125;-82
2022/12/03 09:15:40;;;;;;;35.47;17.13;;;5.70;99.90;;;;;;4992701;28;20052;-81
2022/12/03 09:18:07;;;;;;;35.80;16.88;;;5.80;99.90;;;;;;4992314;28;20042;-82
2022/12/03 09:20:34;;;;;;;41.58;18.00;;;5.80;99.90;;;;;;4991910;28;20052;-81
2022/12/03 09:23:01;;;;;;;37.83;17.63;;;5.80;99.90;;;;;;4991810;28;20043;-81
2022/12/03 09:25:28;;;;;;;39.35;18.15;;;5.70;99.90;;;;;;4990936;28;20070;-82
2022/12/03 09:27:54;;;;;;;43.40;18.83;;;5.70;99.90;;;;;;4991672;28;20061;-80
2022/12/03 09:30:23;;;;;;;39.53;18.25;;;5.70;99.90;;;;;;4991847;28;20046;-83
2022/12/03 09:32:50;;;;;;;39.03;18.15;;;5.70;99.90;;;;;;4991355;28;20046;-83
2022/12/03 09:35:17;;;;;;;41.13;18.65;;;5.70;99.90;;;;;;4991288;28;20038;-82
2022/12/03 09:37:46;;;;;;;47.40;20.13;;;5.60;99.90;;;;;;4991516;28;20121;-79
2022/12/03 09:40:16;;;;;;;43.08;19.55;;;5.60;99.90;;;;;;4991631;28;20038;-81
2022/12/03 09:42:43;;;;;;;44.28;19.92;;;5.60;99.90;;;;;;4991786;28;20499;-81
2022/12/03 09:45:13;;;;;;;44.65;20.27;;;5.60;99.90;;;;;;4994038;28;20053;-83
2022/12/03 09:47:45;;;;;;;44.45;20.70;;;5.50;99.90;;;;;;4997593;28;20041;-83
2022/12/03 09:50:13;;;;;;;43.55;19.15;;;5.60;99.90;;;;;;5008469;28;20041;-80
2022/12/03 09:52:40;;;;;;;45.05;19.25;;;5.60;99.90;;;;;;4989839;28;20125;-79
2022/12/03 09:55:13;;;;;;;42.42;18.60;;;5.60;99.90;;;;;;4985027;28;20049;-80
2022/12/03 09:57:44;;;;;;;41.30;19.50;;;5.70;99.90;;;;;;4975847;28;20388;-79
2022/12/03 10:00:17;;;;;;;45.80;19.02;;;5.70;99.90;;;;;;4995907;28;20117;-79
2022/12/03 10:02:46;;;;;;;45.28;20.38;;;5.80;99.90;;;;;;4991181;28;20515;-80
2022/12/03 10:05:14;;;;;;;43.30;19.83;;;5.70;99.90;;;;;;4990736;28;20053;-81
2022/12/03 10:07:41;;;;;;;40.50;19.00;;;5.80;99.90;;;;;;5003763;28;20121;-81
2022/12/03 10:10:15;;;;;;;44.58;19.90;;;5.70;99.90;;;;;;4994445;28;20038;-82
2022/12/03 10:12:42;;;;;;;45.85;20.15;;;5.80;99.90;;;;;;4988151;28;20046;-81
2022/12/03 10:15:12;;;;;;;45.78;19.52;;;5.80;99.90;;;;;;4988453;28;20066;-81
2022/12/03 10:17:39;;;;;;;47.30;20.60;;;5.80;99.90;;;;;;4990918;28;20052;-82
2022/12/03 10:20:11;;;;;;;42.63;19.40;;;5.80;99.90;;;;;;4990885;28;20039;-81
2022/12/03 10:22:38;;;;;;;45.75;18.73;;;5.80;99.90;;;;;;4988949;28;20506;-82
2022/12/03 10:25:09;;;;;;;43.42;19.73;;;5.80;99.90;;;;;;4988310;28;20053;-80
2022/12/03 10:27:36;;;;;;;44.83;20.40;;;5.80;99.90;;;;;;4990807;28;20054;-80
2022/12/03 10:30:06;;;;;;;41.00;19.17;;;5.80;99.90;;;;;;4990036;28;20042;-80
2022/12/03 10:32:40;;;;;;;44.95;20.13;;;5.80;99.90;;;;;;4987983;28;20052;-80
2022/12/03 10:35:10;;;;;;;45.28;20.80;;;5.80;99.90;;;;;;4990052;28;20042;-87
2022/12/03 10:37:38;;;;;;;47.53;21.77;;;5.80;99.90;;;;;;4998123;28;20104;-80
2022/12/03 10:40:10;;;;;;;46.72;21.08;;;5.80;99.90;;;;;;5005697;28;20049;-80
2022/12/03 10:42:39;;;;;;;42.70;20.33;;;5.90;99.90;;;;;;4988883;28;20046;-81
2022/12/03 10:45:16;;;;;;;43.53;19.33;;;5.90;99.90;;;;;;4989035;28;20520;-81
2022/12/03 10:48:00;;;;;;;43.17;19.05;;;5.80;99.90;;;;;;4988560;28;20034;-79
2022/12/03 10:50:30;;;;;;;43.45;19.25;;;5.80;99.90;;;;;;4985356;28;20034;-90
2022/12/03 10:52:57;;;;;;;43.72;20.10;;;5.80;99.90;;;;;;4999272;28;20050;-79
2022/12/03 10:55:24;;;;;;;41.30;19.20;;;5.80;99.90;;;;;;4990687;28;20050;-79
2022/12/03 10:57:52;;;;;;;41.40;19.02;;;5.80;99.90;;;;;;4989549;28;20050;-79
2022/12/03 11:00:20;;;;;;;43.33;19.42;;;5.80;99.90;;;;;;4975193;28;20052;-79
2022/12/03 11:02:48;;;;;;;40.33;19.30;;;5.80;99.90;;;;;;4987136;28;20056;-79
2022/12/03 11:05:16;;;;;;;43.45;20.10;;;5.90;99.90;;;;;;4987682;28;20068;-79
2022/12/03 11:07:45;;;;;;;40.28;19.75;;;5.80;99.90;;;;;;4990158;28;20566;-79
2022/12/03 11:10:16;;;;;;;42.78;19.60;;;5.90;99.90;;;;;;4994653;28;20494;-79
2022/12/03 11:13:22;;;;;;;44.55;19.85;;;5.90;99.90;;;;;;4989550;28;20050;-79
2022/12/03 11:15:50;;;;;;;44.20;19.50;;;5.90;99.90;;;;;;4989721;28;20042;-79
2022/12/03 11:18:50;;;;;;;39.38;18.75;;;5.90;99.90;;;;;;4990524;28;20061;-79
2022/12/03 11:21:17;;;;;;;40.72;19.25;;;5.90;99.90;;;;;;4976086;28;20137;-77
2022/12/03 11:24:17;;;;;;;41.42;19.23;;;5.70;99.90;;;;;;4995648;28;20042;-80
2022/12/03 11:27:17;;;;;;;40.97;18.42;;;5.70;99.90;;;;;;5000671;28;20053;-80
2022/12/03 11:30:01;;;;;;;41.78;19.33;;;5.60;99.90;;;;;;4980908;28;20502;-77
2022/12/03 11:33:06;;;;;;;40.25;18.27;;;5.60;99.90;;;;;;4968466;28;20137;-79
2022/12/03 11:36:10;;;;;;;45.10;19.63;;;5.60;99.90;;;;;;4987280;28;20054;-79
2022/12/03 11:38:52;;;;;;;42.15;19.85;;;5.70;99.90;;;;;;4930328;28;20063;-78
2022/12/03 11:41:19;;;;;;;;;;;5.70;99.90;;;;;;4978749;28;20395;-79
2022/12/03 11:44:05;;;;;;;41.25;19.45;;;5.70;99.90;;;;;;4972181;28;20754;-79
2022/12/03 11:46:40;;;;;;;42.40;19.90;;;5.80;99.90;;;;;;4989937;28;20057;-79
2022/12/03 11:49:23;;;;;;;41.53;20.20;;;5.80;99.90;;;;;;4975043;28;20056;-80
2022/12/03 11:51:52;;;;;;;43.78;20.23;;;5.80;99.90;;;;;;4986014;28;20049;-80
2022/12/03 11:54:22;;;;;;;43.95;19.92;;;5.80;99.90;;;;;;4989493;28;20038;-79
2022/12/03 11:56:50;;;;;;;38.42;18.98;;;5.80;99.90;;;;;;4988742;28;20519;-78
2022/12/03 11:59:18;;;;;;;41.00;19.73;;;5.80;99.90;;;;;;4988752;28;20042;-79
2022/12/03 12:01:48;;;;;;;41.63;19.35;;;5.90;99.90;;;;;;4988449;28;20040;-79
2022/12/03 12:04:30;;;;;;;43.22;20.33;;;5.90;99.90;;;;;;4989536;28;20048;-79
2022/12/03 12:06:59;;;;;;;41.72;19.73;;;5.90;99.90;;;;;;4989084;28;20061;-79
2022/12/03 12:09:48;;;;;;;43.38;20.23;;;5.80;99.90;;;;;;4989434;28;20037;-79
2022/12/03 12:12:22;;;;;;;44.75;20.25;;;5.80;99.90;;;;;;4967378;28;21772;-79
2022/12/03 12:15:02;;;;;;;46.28;20.92;;;5.80;99.90;;;;;;4976056;28;20159;-79
2022/12/03 12:17:34;;;;;;;41.45;19.27;;;5.80;99.90;;;;;;4975733;28;20042;-79
2022/12/03 12:20:27;;;;;;;43.65;19.35;;;5.80;99.90;;;;;;4975850;28;20046;-78
2022/12/03 12:22:56;;;;;;;46.92;21.15;;;5.90;99.90;;;;;;4929589;28;20058;-82
2022/12/03 12:25:38;;;;;;;43.17;20.05;;;5.90;99.90;;;;;;4972386;28;20050;-78
2022/12/03 12:28:06;;;;;;;45.25;20.48;;;6.00;99.90;;;;;;4971318;28;21271;-80
2022/12/03 12:30:33;;;;;;;44.53;21.42;;;6.00;99.90;;;;;;4959981;28;20053;-79
2022/12/03 12:33:17;;;;;;;42.80;20.13;;;6.00;99.90;;;;;;4974123;28;20057;-79
2022/12/03 12:35:44;;;;;;;48.58;20.65;;;5.90;99.90;;;;;;4975744;28;20058;-79
2022/12/03 12:38:16;;;;;;;45.88;20.90;;;6.00;99.90;;;;;;4977096;28;20046;-78
2022/12/03 12:40:45;;;;;;;41.30;19.50;;;5.90;99.90;;;;;;4976405;28;20046;-79
2022/12/03 12:43:24;;;;;;;41.35;19.40;;;5.90;99.90;;;;;;4976466;28;20053;-78
2022/12/03 12:45:52;;;;;;;43.13;19.95;;;5.90;99.90;;;;;;4976149;28;21858;-78
2022/12/03 12:48:25;;;;;;;43.05;20.30;;;5.90;99.90;;;;;;4977300;28;20056;-81
2022/12/03 12:50:58;;;;;;;38.78;20.02;;;5.90;99.90;;;;;;4973565;28;20049;-79
2022/12/03 12:53:28;;;;;;;39.92;19.48;;;5.80;99.90;;;;;;4974754;28;20046;-79
2022/12/03 12:55:57;;;;;;;41.07;19.57;;;5.90;99.90;;;;;;4974417;28;20053;-79
2022/12/03 12:58:27;;;;;;;43.97;19.98;;;5.90;99.90;;;;;;4975556;28;20054;-79
2022/12/03 13:00:55;;;;;;;42.53;20.13;;;5.90;99.90;;;;;;4978737;28;20539;-79
2022/12/03 13:03:25;;;;;;;42.75;20.67;;;5.80;99.90;;;;;;4975455;28;20038;-79
2022/12/03 13:05:52;;;;;;;43.35;20.13;;;5.90;99.90;;;;;;4979979;28;20054;-79